sensor_id;sensor_type;location;lat;lon;timestamp;P1;durP1;ratioP1;P2;durP2;ratioP2
5507;SDS011;2776;51.046;6.772;2024-01-30T00:02:02;9.77;;;5.07;;
5507;SDS011;2776;51.046;6.772;2024-01-30T00:04:29;11.70;;;5.40;;
5507;SDS011;2776;51.046;6.772;2024-01-30T00:06:56;10.23;;;5.70;;
5507;SDS011;2776;51.046;6.772;2024-01-30T00:09:22;9.27;;;5.40;;
5507;SDS011;2776;51.046;6.772;2024-01-30T00:11:49;6.33;;;4.53;;
5507;SDS011;2776;51.046;6.772;2024-01-30T00:14:17;8.60;;;5.07;;
5507;SDS011;2776;51.046;6.772;2024-01-30T00:16:44;5.37;;;4.87;;
5507;SDS011;2776;51.046;6.772;2024-01-30T00:19:11;7.03;;;5.37;;
5507;SDS011;2776;51.046;6.772;2024-01-30T00:21:38;7.00;;;5.53;;
5507;SDS011;2776;51.046;6.772;2024-01-30T00:24:04;8.03;;;5.13;;
5507;SDS011;2776;51.046;6.772;2024-01-30T00:26:31;9.20;;;5.90;;
5507;SDS011;2776;51.046;6.772;2024-01-30T00:28:58;8.80;;;5.93;;
5507;SDS011;2776;51.046;6.772;2024-01-30T00:31:26;7.80;;;5.47;;
5507;SDS011;2776;51.046;6.772;2024-01-30T00:33:53;10.23;;;6.07;;
5507;SDS011;2776;51.046;6.772;2024-01-30T00:36:19;9.27;;;5.17;;
5507;SDS011;2776;51.046;6.772;2024-01-30T00:38:46;6.57;;;4.60;;
5507;SDS011;2776;51.046;6.772;2024-01-30T00:41:13;8.57;;;5.30;;
5507;SDS011;2776;51.046;6.772;2024-01-30T00:43:40;7.00;;;5.20;;
5507;SDS011;2776;51.046;6.772;2024-01-30T00:46:07;8.77;;;5.77;;
5507;SDS011;2776;51.046;6.772;2024-01-30T00:48:35;9.33;;;6.23;;
5507;SDS011;2776;51.046;6.772;2024-01-30T00:51:01;8.53;;;5.43;;
5507;SDS011;2776;51.046;6.772;2024-01-30T00:53:28;12.13;;;6.50;;
5507;SDS011;2776;51.046;6.772;2024-01-30T00:55:55;9.17;;;5.87;;
5507;SDS011;2776;51.046;6.772;2024-01-30T00:58:21;9.13;;;5.47;;
5507;SDS011;2776;51.046;6.772;2024-01-30T01:00:48;6.87;;;5.80;;
5507;SDS011;2776;51.046;6.772;2024-01-30T01:03:15;9.47;;;6.70;;
5507;SDS011;2776;51.046;6.772;2024-01-30T01:05:43;9.13;;;6.13;;
5507;SDS011;2776;51.046;6.772;2024-01-30T01:08:09;9.60;;;5.43;;
5507;SDS011;2776;51.046;6.772;2024-01-30T01:10:36;9.57;;;5.77;;
5507;SDS011;2776;51.046;6.772;2024-01-30T01:13:03;6.10;;;5.37;;
5507;SDS011;2776;51.046;6.772;2024-01-30T01:15:30;9.47;;;6.37;;
5507;SDS011;2776;51.046;6.772;2024-01-30T01:17:57;9.10;;;5.40;;
5507;SDS011;2776;51.046;6.772;2024-01-30T01:20:24;6.97;;;5.03;;
5507;SDS011;2776;51.046;6.772;2024-01-30T01:22:52;8.40;;;5.10;;
5507;SDS011;2776;51.046;6.772;2024-01-30T01:25:19;12.50;;;6.07;;
5507;SDS011;2776;51.046;6.772;2024-01-30T01:27:45;7.67;;;5.60;;
5507;SDS011;2776;51.046;6.772;2024-01-30T01:30:17;7.47;;;5.87;;
5507;SDS011;2776;51.046;6.772;2024-01-30T01:32:46;9.10;;;5.93;;
5507;SDS011;2776;51.046;6.772;2024-01-30T01:35:19;8.93;;;6.07;;
5507;SDS011;2776;51.046;6.772;2024-01-30T01:37:47;7.63;;;5.50;;
5507;SDS011;2776;51.046;6.772;2024-01-30T01:40:21;10.00;;;6.17;;
5507;SDS011;2776;51.046;6.772;2024-01-30T01:42:49;9.90;;;5.83;;
5507;SDS011;2776;51.046;6.772;2024-01-30T01:45:16;8.37;;;5.83;;
5507;SDS011;2776;51.046;6.772;2024-01-30T01:47:43;7.57;;;5.50;;
5507;SDS011;2776;51.046;6.772;2024-01-30T01:50:12;10.23;;;5.60;;
5507;SDS011;2776;51.046;6.772;2024-01-30T01:52:39;9.40;;;5.73;;
5507;SDS011;2776;51.046;6.772;2024-01-30T01:55:07;16.00;;;5.87;;
5507;SDS011;2776;51.046;6.772;2024-01-30T01:57:35;11.33;;;4.83;;
5507;SDS011;2776;51.046;6.772;2024-01-30T02:00:02;13.57;;;5.70;;
5507;SDS011;2776;51.046;6.772;2024-01-30T02:02:30;8.03;;;5.60;;
5507;SDS011;2776;51.046;6.772;2024-01-30T02:05:01;10.27;;;5.93;;
5507;SDS011;2776;51.046;6.772;2024-01-30T02:07:27;9.40;;;6.23;;
5507;SDS011;2776;51.046;6.772;2024-01-30T02:09:54;9.73;;;5.57;;
5507;SDS011;2776;51.046;6.772;2024-01-30T02:12:21;10.40;;;6.00;;
5507;SDS011;2776;51.046;6.772;2024-01-30T02:14:50;8.23;;;6.30;;
5507;SDS011;2776;51.046;6.772;2024-01-30T02:17:16;11.23;;;6.17;;
5507;SDS011;2776;51.046;6.772;2024-01-30T02:19:43;9.27;;;6.30;;
5507;SDS011;2776;51.046;6.772;2024-01-30T02:22:11;6.50;;;5.37;;
5507;SDS011;2776;51.046;6.772;2024-01-30T02:24:39;8.63;;;5.60;;
5507;SDS011;2776;51.046;6.772;2024-01-30T02:27:06;7.60;;;6.37;;
5507;SDS011;2776;51.046;6.772;2024-01-30T02:29:32;8.07;;;6.07;;
5507;SDS011;2776;51.046;6.772;2024-01-30T02:31:59;8.57;;;6.20;;
5507;SDS011;2776;51.046;6.772;2024-01-30T02:34:26;9.83;;;6.10;;
5507;SDS011;2776;51.046;6.772;2024-01-30T02:36:52;8.50;;;6.20;;
5507;SDS011;2776;51.046;6.772;2024-01-30T02:39:20;10.60;;;6.20;;
5507;SDS011;2776;51.046;6.772;2024-01-30T02:41:47;12.27;;;6.07;;
5507;SDS011;2776;51.046;6.772;2024-01-30T02:44:14;8.60;;;5.13;;
5507;SDS011;2776;51.046;6.772;2024-01-30T02:46:41;8.43;;;6.03;;
5507;SDS011;2776;51.046;6.772;2024-01-30T02:49:07;7.20;;;5.80;;
5507;SDS011;2776;51.046;6.772;2024-01-30T02:51:34;7.63;;;5.13;;
5507;SDS011;2776;51.046;6.772;2024-01-30T02:54:01;8.97;;;5.30;;
5507;SDS011;2776;51.046;6.772;2024-01-30T02:56:29;13.43;;;5.87;;
5507;SDS011;2776;51.046;6.772;2024-01-30T02:58:55;8.50;;;5.17;;
5507;SDS011;2776;51.046;6.772;2024-01-30T03:01:22;9.53;;;5.90;;
5507;SDS011;2776;51.046;6.772;2024-01-30T03:03:49;7.73;;;5.30;;
5507;SDS011;2776;51.046;6.772;2024-01-30T03:06:16;8.30;;;5.20;;
5507;SDS011;2776;51.046;6.772;2024-01-30T03:08:45;8.57;;;5.73;;
5507;SDS011;2776;51.046;6.772;2024-01-30T03:11:11;6.87;;;5.27;;
5507;SDS011;2776;51.046;6.772;2024-01-30T03:13:39;10.50;;;4.83;;
5507;SDS011;2776;51.046;6.772;2024-01-30T03:16:06;11.77;;;5.80;;
5507;SDS011;2776;51.046;6.772;2024-01-30T03:18:34;7.27;;;5.50;;
5507;SDS011;2776;51.046;6.772;2024-01-30T03:21:01;9.63;;;5.27;;
5507;SDS011;2776;51.046;6.772;2024-01-30T03:23:28;5.30;;;4.80;;
5507;SDS011;2776;51.046;6.772;2024-01-30T03:25:54;6.57;;;5.43;;
5507;SDS011;2776;51.046;6.772;2024-01-30T03:28:21;8.90;;;6.30;;
5507;SDS011;2776;51.046;6.772;2024-01-30T03:30:49;9.10;;;5.53;;
5507;SDS011;2776;51.046;6.772;2024-01-30T03:33:16;12.03;;;5.93;;
5507;SDS011;2776;51.046;6.772;2024-01-30T03:35:42;8.03;;;5.53;;
5507;SDS011;2776;51.046;6.772;2024-01-30T03:38:09;7.23;;;5.57;;
5507;SDS011;2776;51.046;6.772;2024-01-30T03:40:36;10.63;;;5.50;;
5507;SDS011;2776;51.046;6.772;2024-01-30T03:43:02;6.83;;;4.77;;
5507;SDS011;2776;51.046;6.772;2024-01-30T03:45:30;6.87;;;4.93;;
5507;SDS011;2776;51.046;6.772;2024-01-30T03:47:58;5.47;;;4.60;;
5507;SDS011;2776;51.046;6.772;2024-01-30T03:50:24;7.33;;;5.03;;
5507;SDS011;2776;51.046;6.772;2024-01-30T03:52:51;9.60;;;5.33;;
5507;SDS011;2776;51.046;6.772;2024-01-30T03:55:18;8.40;;;5.73;;
5507;SDS011;2776;51.046;6.772;2024-01-30T03:57:44;6.63;;;5.47;;
5507;SDS011;2776;51.046;6.772;2024-01-30T04:00:11;9.83;;;5.73;;
5507;SDS011;2776;51.046;6.772;2024-01-30T04:02:40;7.13;;;4.90;;
5507;SDS011;2776;51.046;6.772;2024-01-30T04:05:08;6.00;;;5.23;;
5507;SDS011;2776;51.046;6.772;2024-01-30T04:07:35;6.13;;;4.70;;
5507;SDS011;2776;51.046;6.772;2024-01-30T04:10:02;8.53;;;4.83;;
5507;SDS011;2776;51.046;6.772;2024-01-30T04:12:30;6.63;;;5.57;;
5507;SDS011;2776;51.046;6.772;2024-01-30T04:14:57;9.13;;;4.60;;
5507;SDS011;2776;51.046;6.772;2024-01-30T04:17:23;4.87;;;4.40;;
5507;SDS011;2776;51.046;6.772;2024-01-30T04:19:50;9.23;;;5.63;;
5507;SDS011;2776;51.046;6.772;2024-01-30T04:22:18;9.33;;;5.50;;
5507;SDS011;2776;51.046;6.772;2024-01-30T04:24:45;5.77;;;4.47;;
5507;SDS011;2776;51.046;6.772;2024-01-30T04:27:12;6.77;;;5.23;;
5507;SDS011;2776;51.046;6.772;2024-01-30T04:29:38;10.83;;;5.40;;
5507;SDS011;2776;51.046;6.772;2024-01-30T04:32:05;7.67;;;4.57;;
5507;SDS011;2776;51.046;6.772;2024-01-30T04:34:31;9.40;;;5.50;;
5507;SDS011;2776;51.046;6.772;2024-01-30T04:36:58;7.20;;;4.23;;
5507;SDS011;2776;51.046;6.772;2024-01-30T04:39:26;7.27;;;4.60;;
5507;SDS011;2776;51.046;6.772;2024-01-30T04:41:53;7.77;;;5.60;;
5507;SDS011;2776;51.046;6.772;2024-01-30T04:44:19;7.77;;;4.37;;
5507;SDS011;2776;51.046;6.772;2024-01-30T04:46:46;9.57;;;5.13;;
5507;SDS011;2776;51.046;6.772;2024-01-30T04:49:13;7.80;;;5.53;;
5507;SDS011;2776;51.046;6.772;2024-01-30T04:51:39;8.43;;;5.10;;
5507;SDS011;2776;51.046;6.772;2024-01-30T04:54:06;6.63;;;4.87;;
5507;SDS011;2776;51.046;6.772;2024-01-30T04:56:34;8.50;;;5.80;;
5507;SDS011;2776;51.046;6.772;2024-01-30T04:59:01;6.60;;;5.63;;
5507;SDS011;2776;51.046;6.772;2024-01-30T05:01:28;11.13;;;5.70;;
5507;SDS011;2776;51.046;6.772;2024-01-30T05:03:55;9.97;;;5.03;;
5507;SDS011;2776;51.046;6.772;2024-01-30T05:06:25;7.47;;;5.50;;
5507;SDS011;2776;51.046;6.772;2024-01-30T05:08:52;9.37;;;6.30;;
5507;SDS011;2776;51.046;6.772;2024-01-30T05:11:18;8.13;;;5.33;;
5507;SDS011;2776;51.046;6.772;2024-01-30T05:13:46;7.23;;;5.77;;
5507;SDS011;2776;51.046;6.772;2024-01-30T05:16:13;7.77;;;5.13;;
5507;SDS011;2776;51.046;6.772;2024-01-30T05:18:40;7.80;;;4.83;;
5507;SDS011;2776;51.046;6.772;2024-01-30T05:21:06;9.63;;;5.33;;
5507;SDS011;2776;51.046;6.772;2024-01-30T05:23:33;10.17;;;5.10;;
5507;SDS011;2776;51.046;6.772;2024-01-30T05:26:00;7.93;;;4.60;;
5507;SDS011;2776;51.046;6.772;2024-01-30T05:28:27;7.10;;;4.60;;
5507;SDS011;2776;51.046;6.772;2024-01-30T05:30:56;6.20;;;4.83;;
5507;SDS011;2776;51.046;6.772;2024-01-30T05:33:22;8.03;;;5.30;;
5507;SDS011;2776;51.046;6.772;2024-01-30T05:35:49;11.37;;;6.27;;
5507;SDS011;2776;51.046;6.772;2024-01-30T05:38:19;10.67;;;5.33;;
5507;SDS011;2776;51.046;6.772;2024-01-30T05:40:46;14.27;;;6.00;;
5507;SDS011;2776;51.046;6.772;2024-01-30T05:43:12;8.00;;;6.10;;
5507;SDS011;2776;51.046;6.772;2024-01-30T05:45:39;8.30;;;5.33;;
5507;SDS011;2776;51.046;6.772;2024-01-30T05:48:07;8.47;;;5.00;;
5507;SDS011;2776;51.046;6.772;2024-01-30T05:50:34;9.13;;;5.77;;
5507;SDS011;2776;51.046;6.772;2024-01-30T05:53:00;11.77;;;5.97;;
5507;SDS011;2776;51.046;6.772;2024-01-30T05:55:27;9.50;;;5.10;;
5507;SDS011;2776;51.046;6.772;2024-01-30T05:57:54;10.20;;;5.90;;
5507;SDS011;2776;51.046;6.772;2024-01-30T06:00:21;10.07;;;5.77;;
5507;SDS011;2776;51.046;6.772;2024-01-30T06:02:47;8.03;;;5.23;;
5507;SDS011;2776;51.046;6.772;2024-01-30T06:05:15;7.60;;;5.43;;
5507;SDS011;2776;51.046;6.772;2024-01-30T06:07:42;7.10;;;5.43;;
5507;SDS011;2776;51.046;6.772;2024-01-30T06:10:09;9.43;;;5.70;;
5507;SDS011;2776;51.046;6.772;2024-01-30T06:12:35;7.00;;;4.67;;
5507;SDS011;2776;51.046;6.772;2024-01-30T06:15:02;6.73;;;4.57;;
5507;SDS011;2776;51.046;6.772;2024-01-30T06:17:30;9.00;;;5.93;;
5507;SDS011;2776;51.046;6.772;2024-01-30T06:19:56;6.37;;;4.53;;
5507;SDS011;2776;51.046;6.772;2024-01-30T06:22:24;8.87;;;5.90;;
5507;SDS011;2776;51.046;6.772;2024-01-30T06:24:51;8.83;;;5.47;;
5507;SDS011;2776;51.046;6.772;2024-01-30T06:27:18;8.67;;;5.47;;
5507;SDS011;2776;51.046;6.772;2024-01-30T06:29:45;7.43;;;5.37;;
5507;SDS011;2776;51.046;6.772;2024-01-30T06:32:12;8.20;;;5.10;;
5507;SDS011;2776;51.046;6.772;2024-01-30T06:34:40;7.43;;;5.47;;
5507;SDS011;2776;51.046;6.772;2024-01-30T06:37:09;6.57;;;4.87;;
5507;SDS011;2776;51.046;6.772;2024-01-30T06:39:37;11.57;;;6.20;;
5507;SDS011;2776;51.046;6.772;2024-01-30T06:42:04;9.43;;;5.43;;
5507;SDS011;2776;51.046;6.772;2024-01-30T06:44:31;6.33;;;4.93;;
5507;SDS011;2776;51.046;6.772;2024-01-30T06:46:57;8.07;;;5.63;;
5507;SDS011;2776;51.046;6.772;2024-01-30T06:49:24;8.30;;;5.07;;
5507;SDS011;2776;51.046;6.772;2024-01-30T06:51:51;8.93;;;5.50;;
5507;SDS011;2776;51.046;6.772;2024-01-30T06:54:18;7.83;;;5.30;;
5507;SDS011;2776;51.046;6.772;2024-01-30T06:56:46;6.97;;;5.27;;
5507;SDS011;2776;51.046;6.772;2024-01-30T06:59:13;9.57;;;5.87;;
5507;SDS011;2776;51.046;6.772;2024-01-30T07:01:39;8.23;;;5.50;;
5507;SDS011;2776;51.046;6.772;2024-01-30T07:04:06;13.50;;;5.00;;
5507;SDS011;2776;51.046;6.772;2024-01-30T07:06:33;9.00;;;5.93;;
5507;SDS011;2776;51.046;6.772;2024-01-30T07:08:59;9.77;;;5.07;;
5507;SDS011;2776;51.046;6.772;2024-01-30T07:11:26;9.00;;;5.40;;
5507;SDS011;2776;51.046;6.772;2024-01-30T07:13:55;10.67;;;6.10;;
5507;SDS011;2776;51.046;6.772;2024-01-30T07:16:22;11.13;;;5.07;;
5507;SDS011;2776;51.046;6.772;2024-01-30T07:18:48;8.43;;;5.23;;
5507;SDS011;2776;51.046;6.772;2024-01-30T07:21:15;9.10;;;5.07;;
5507;SDS011;2776;51.046;6.772;2024-01-30T07:23:42;8.33;;;5.57;;
5507;SDS011;2776;51.046;6.772;2024-01-30T07:26:09;7.63;;;5.60;;
5507;SDS011;2776;51.046;6.772;2024-01-30T07:28:35;5.60;;;5.10;;
5507;SDS011;2776;51.046;6.772;2024-01-30T07:31:03;8.37;;;5.70;;
5507;SDS011;2776;51.046;6.772;2024-01-30T07:33:31;6.70;;;4.77;;
5507;SDS011;2776;51.046;6.772;2024-01-30T07:35:58;9.33;;;5.20;;
5507;SDS011;2776;51.046;6.772;2024-01-30T07:38:24;7.30;;;4.93;;
5507;SDS011;2776;51.046;6.772;2024-01-30T07:40:51;5.50;;;4.70;;
5507;SDS011;2776;51.046;6.772;2024-01-30T07:43:18;8.07;;;5.33;;
5507;SDS011;2776;51.046;6.772;2024-01-30T07:45:46;9.10;;;5.50;;
5507;SDS011;2776;51.046;6.772;2024-01-30T07:48:14;6.30;;;4.60;;
5507;SDS011;2776;51.046;6.772;2024-01-30T07:50:40;8.23;;;5.33;;
5507;SDS011;2776;51.046;6.772;2024-01-30T07:53:07;9.03;;;4.90;;
5507;SDS011;2776;51.046;6.772;2024-01-30T07:55:34;13.10;;;5.20;;
5507;SDS011;2776;51.046;6.772;2024-01-30T07:58:01;5.73;;;5.13;;
5507;SDS011;2776;51.046;6.772;2024-01-30T08:00:29;7.97;;;5.33;;
5507;SDS011;2776;51.046;6.772;2024-01-30T08:02:56;5.57;;;4.63;;
5507;SDS011;2776;51.046;6.772;2024-01-30T08:05:25;7.63;;;5.43;;
5507;SDS011;2776;51.046;6.772;2024-01-30T08:07:51;9.30;;;5.43;;
5507;SDS011;2776;51.046;6.772;2024-01-30T08:10:18;7.33;;;5.10;;
5507;SDS011;2776;51.046;6.772;2024-01-30T08:12:45;6.10;;;5.10;;
5507;SDS011;2776;51.046;6.772;2024-01-30T08:15:11;7.07;;;5.03;;
5507;SDS011;2776;51.046;6.772;2024-01-30T08:17:38;5.53;;;4.93;;
5507;SDS011;2776;51.046;6.772;2024-01-30T08:20:06;9.93;;;5.13;;
5507;SDS011;2776;51.046;6.772;2024-01-30T08:22:37;7.23;;;5.17;;
5507;SDS011;2776;51.046;6.772;2024-01-30T08:25:04;6.17;;;4.80;;
5507;SDS011;2776;51.046;6.772;2024-01-30T08:27:32;8.10;;;4.77;;
5507;SDS011;2776;51.046;6.772;2024-01-30T08:30:00;9.27;;;5.37;;
5507;SDS011;2776;51.046;6.772;2024-01-30T08:32:27;7.90;;;4.77;;
5507;SDS011;2776;51.046;6.772;2024-01-30T08:34:53;6.07;;;5.20;;
5507;SDS011;2776;51.046;6.772;2024-01-30T08:37:20;9.73;;;5.73;;
5507;SDS011;2776;51.046;6.772;2024-01-30T08:39:48;9.57;;;5.07;;
5507;SDS011;2776;51.046;6.772;2024-01-30T08:42:15;6.57;;;5.20;;
5507;SDS011;2776;51.046;6.772;2024-01-30T08:44:43;11.27;;;5.00;;
5507;SDS011;2776;51.046;6.772;2024-01-30T08:47:10;6.90;;;5.50;;
5507;SDS011;2776;51.046;6.772;2024-01-30T08:49:36;11.33;;;6.27;;
5507;SDS011;2776;51.046;6.772;2024-01-30T08:52:03;9.27;;;4.83;;
5507;SDS011;2776;51.046;6.772;2024-01-30T08:54:31;5.43;;;4.30;;
5507;SDS011;2776;51.046;6.772;2024-01-30T08:57:00;9.57;;;5.10;;
5507;SDS011;2776;51.046;6.772;2024-01-30T08:59:27;6.10;;;4.33;;
5507;SDS011;2776;51.046;6.772;2024-01-30T09:01:54;9.80;;;5.23;;
5507;SDS011;2776;51.046;6.772;2024-01-30T09:04:22;7.37;;;4.80;;
5507;SDS011;2776;51.046;6.772;2024-01-30T09:06:49;8.13;;;5.00;;
5507;SDS011;2776;51.046;6.772;2024-01-30T09:09:16;6.03;;;4.57;;
5507;SDS011;2776;51.046;6.772;2024-01-30T09:11:44;5.27;;;4.70;;
5507;SDS011;2776;51.046;6.772;2024-01-30T09:14:12;8.37;;;5.33;;
5507;SDS011;2776;51.046;6.772;2024-01-30T09:16:39;7.27;;;4.83;;
5507;SDS011;2776;51.046;6.772;2024-01-30T09:19:05;6.53;;;4.67;;
5507;SDS011;2776;51.046;6.772;2024-01-30T09:21:32;6.97;;;5.40;;
5507;SDS011;2776;51.046;6.772;2024-01-30T09:24:01;8.00;;;4.80;;
5507;SDS011;2776;51.046;6.772;2024-01-30T09:26:29;8.33;;;4.80;;
5507;SDS011;2776;51.046;6.772;2024-01-30T09:28:55;7.83;;;4.57;;
5507;SDS011;2776;51.046;6.772;2024-01-30T09:31:23;7.80;;;5.10;;
5507;SDS011;2776;51.046;6.772;2024-01-30T09:33:50;8.00;;;5.33;;
5507;SDS011;2776;51.046;6.772;2024-01-30T09:36:18;5.50;;;4.23;;
5507;SDS011;2776;51.046;6.772;2024-01-30T09:38:46;8.07;;;4.83;;
5507;SDS011;2776;51.046;6.772;2024-01-30T09:41:12;8.73;;;5.40;;
5507;SDS011;2776;51.046;6.772;2024-01-30T09:43:39;8.67;;;4.97;;
5507;SDS011;2776;51.046;6.772;2024-01-30T09:46:06;6.23;;;4.77;;
5507;SDS011;2776;51.046;6.772;2024-01-30T09:48:39;8.67;;;5.30;;
5507;SDS011;2776;51.046;6.772;2024-01-30T09:51:07;16.90;;;5.60;;
5507;SDS011;2776;51.046;6.772;2024-01-30T09:53:35;6.77;;;5.03;;
5507;SDS011;2776;51.046;6.772;2024-01-30T09:56:02;8.53;;;5.00;;
5507;SDS011;2776;51.046;6.772;2024-01-30T09:58:31;6.57;;;4.80;;
5507;SDS011;2776;51.046;6.772;2024-01-30T10:00:58;6.03;;;4.70;;
5507;SDS011;2776;51.046;6.772;2024-01-30T10:03:24;6.87;;;4.77;;
5507;SDS011;2776;51.046;6.772;2024-01-30T10:05:53;6.67;;;5.37;;
5507;SDS011;2776;51.046;6.772;2024-01-30T10:08:22;5.90;;;4.73;;
5507;SDS011;2776;51.046;6.772;2024-01-30T10:10:49;5.93;;;4.60;;
5507;SDS011;2776;51.046;6.772;2024-01-30T10:13:16;11.63;;;5.17;;
5507;SDS011;2776;51.046;6.772;2024-01-30T10:15:43;8.57;;;5.20;;
5507;SDS011;2776;51.046;6.772;2024-01-30T10:18:10;5.67;;;5.13;;
5507;SDS011;2776;51.046;6.772;2024-01-30T10:20:37;13.57;;;5.53;;
5507;SDS011;2776;51.046;6.772;2024-01-30T10:23:05;7.90;;;4.80;;
5507;SDS011;2776;51.046;6.772;2024-01-30T10:25:32;8.37;;;4.80;;
5507;SDS011;2776;51.046;6.772;2024-01-30T10:27:59;7.27;;;5.63;;
5507;SDS011;2776;51.046;6.772;2024-01-30T10:30:26;8.67;;;5.43;;
5507;SDS011;2776;51.046;6.772;2024-01-30T10:32:53;10.20;;;5.30;;
5507;SDS011;2776;51.046;6.772;2024-01-30T10:35:20;7.87;;;5.10;;
5507;SDS011;2776;51.046;6.772;2024-01-30T10:37:47;8.23;;;4.80;;
5507;SDS011;2776;51.046;6.772;2024-01-30T10:40:15;8.97;;;5.30;;
5507;SDS011;2776;51.046;6.772;2024-01-30T10:42:43;9.63;;;5.83;;
5507;SDS011;2776;51.046;6.772;2024-01-30T10:45:11;8.67;;;5.27;;
5507;SDS011;2776;51.046;6.772;2024-01-30T10:47:39;7.60;;;4.80;;
5507;SDS011;2776;51.046;6.772;2024-01-30T10:50:07;8.47;;;5.27;;
5507;SDS011;2776;51.046;6.772;2024-01-30T10:52:35;6.03;;;4.60;;
5507;SDS011;2776;51.046;6.772;2024-01-30T10:55:03;10.30;;;5.97;;
5507;SDS011;2776;51.046;6.772;2024-01-30T10:57:33;7.77;;;4.90;;
5507;SDS011;2776;51.046;6.772;2024-01-30T11:00:02;6.43;;;4.83;;
5507;SDS011;2776;51.046;6.772;2024-01-30T11:02:31;6.30;;;4.63;;
5507;SDS011;2776;51.046;6.772;2024-01-30T11:04:59;6.33;;;4.80;;
5507;SDS011;2776;51.046;6.772;2024-01-30T11:07:26;7.10;;;4.90;;
5507;SDS011;2776;51.046;6.772;2024-01-30T11:09:59;7.33;;;5.47;;
5507;SDS011;2776;51.046;6.772;2024-01-30T11:12:29;7.63;;;5.23;;
5507;SDS011;2776;51.046;6.772;2024-01-30T11:15:03;9.43;;;5.33;;
5507;SDS011;2776;51.046;6.772;2024-01-30T11:17:41;8.20;;;4.73;;
5507;SDS011;2776;51.046;6.772;2024-01-30T11:20:12;11.57;;;5.40;;
5507;SDS011;2776;51.046;6.772;2024-01-30T11:22:41;7.87;;;5.47;;
5507;SDS011;2776;51.046;6.772;2024-01-30T11:25:13;7.40;;;5.00;;
5507;SDS011;2776;51.046;6.772;2024-01-30T11:27:41;6.13;;;4.50;;
5507;SDS011;2776;51.046;6.772;2024-01-30T11:30:09;7.37;;;5.07;;
5507;SDS011;2776;51.046;6.772;2024-01-30T11:32:37;9.17;;;5.37;;
5507;SDS011;2776;51.046;6.772;2024-01-30T11:35:04;9.90;;;5.73;;
5507;SDS011;2776;51.046;6.772;2024-01-30T11:37:34;8.83;;;5.23;;
5507;SDS011;2776;51.046;6.772;2024-01-30T11:40:04;6.27;;;4.70;;
5507;SDS011;2776;51.046;6.772;2024-01-30T11:42:31;9.73;;;5.03;;
5507;SDS011;2776;51.046;6.772;2024-01-30T11:45:00;8.37;;;5.40;;
5507;SDS011;2776;51.046;6.772;2024-01-30T11:47:29;8.13;;;4.87;;
5507;SDS011;2776;51.046;6.772;2024-01-30T11:49:56;6.00;;;4.93;;
5507;SDS011;2776;51.046;6.772;2024-01-30T11:52:23;6.90;;;4.87;;
5507;SDS011;2776;51.046;6.772;2024-01-30T11:54:50;8.67;;;6.00;;
5507;SDS011;2776;51.046;6.772;2024-01-30T11:57:17;8.63;;;5.43;;
5507;SDS011;2776;51.046;6.772;2024-01-30T11:59:43;10.67;;;5.07;;
5507;SDS011;2776;51.046;6.772;2024-01-30T12:02:14;8.90;;;5.47;;
5507;SDS011;2776;51.046;6.772;2024-01-30T12:04:43;9.30;;;4.80;;
5507;SDS011;2776;51.046;6.772;2024-01-30T12:07:10;6.17;;;4.97;;
5507;SDS011;2776;51.046;6.772;2024-01-30T12:09:37;6.37;;;4.90;;
5507;SDS011;2776;51.046;6.772;2024-01-30T12:12:04;6.67;;;4.50;;
5507;SDS011;2776;51.046;6.772;2024-01-30T12:14:36;8.30;;;5.40;;
5507;SDS011;2776;51.046;6.772;2024-01-30T12:17:04;11.10;;;5.37;;
5507;SDS011;2776;51.046;6.772;2024-01-30T12:19:32;6.00;;;4.73;;
5507;SDS011;2776;51.046;6.772;2024-01-30T12:22:00;8.57;;;5.13;;
5507;SDS011;2776;51.046;6.772;2024-01-30T12:24:27;6.40;;;4.37;;
5507;SDS011;2776;51.046;6.772;2024-01-30T12:26:56;7.57;;;5.20;;
5507;SDS011;2776;51.046;6.772;2024-01-30T12:29:23;4.73;;;2.80;;
5507;SDS011;2776;51.046;6.772;2024-01-30T12:31:52;4.10;;;3.13;;
5507;SDS011;2776;51.046;6.772;2024-01-30T12:34:19;3.30;;;2.60;;
5507;SDS011;2776;51.046;6.772;2024-01-30T12:36:46;6.67;;;2.80;;
5507;SDS011;2776;51.046;6.772;2024-01-30T12:39:15;8.17;;;3.20;;
5507;SDS011;2776;51.046;6.772;2024-01-30T12:41:42;5.57;;;2.97;;
5507;SDS011;2776;51.046;6.772;2024-01-30T12:44:08;6.00;;;3.07;;
5507;SDS011;2776;51.046;6.772;2024-01-30T12:46:35;4.67;;;3.33;;
5507;SDS011;2776;51.046;6.772;2024-01-30T12:49:02;3.40;;;2.60;;
5507;SDS011;2776;51.046;6.772;2024-01-30T12:51:29;3.20;;;2.53;;
5507;SDS011;2776;51.046;6.772;2024-01-30T12:53:55;6.27;;;2.73;;
5507;SDS011;2776;51.046;6.772;2024-01-30T12:56:24;4.60;;;2.50;;
5507;SDS011;2776;51.046;6.772;2024-01-30T12:58:50;4.90;;;3.10;;
5507;SDS011;2776;51.046;6.772;2024-01-30T13:01:17;4.67;;;3.20;;
5507;SDS011;2776;51.046;6.772;2024-01-30T13:03:44;6.53;;;2.87;;
5507;SDS011;2776;51.046;6.772;2024-01-30T13:06:11;6.23;;;3.30;;
5507;SDS011;2776;51.046;6.772;2024-01-30T13:08:38;6.93;;;3.40;;
5507;SDS011;2776;51.046;6.772;2024-01-30T13:11:04;4.77;;;3.57;;
5507;SDS011;2776;51.046;6.772;2024-01-30T13:13:33;7.30;;;3.57;;
5507;SDS011;2776;51.046;6.772;2024-01-30T13:16:00;4.97;;;3.23;;
5507;SDS011;2776;51.046;6.772;2024-01-30T13:18:27;3.90;;;2.77;;
5507;SDS011;2776;51.046;6.772;2024-01-30T13:20:54;6.97;;;3.47;;
5507;SDS011;2776;51.046;6.772;2024-01-30T13:23:21;7.03;;;3.20;;
5507;SDS011;2776;51.046;6.772;2024-01-30T13:25:47;6.57;;;3.10;;
5507;SDS011;2776;51.046;6.772;2024-01-30T13:28:14;4.67;;;3.03;;
5507;SDS011;2776;51.046;6.772;2024-01-30T13:30:42;3.50;;;2.30;;
5507;SDS011;2776;51.046;6.772;2024-01-30T13:33:09;4.70;;;3.23;;
5507;SDS011;2776;51.046;6.772;2024-01-30T13:35:36;3.53;;;2.90;;
5507;SDS011;2776;51.046;6.772;2024-01-30T13:38:03;7.90;;;3.40;;
5507;SDS011;2776;51.046;6.772;2024-01-30T13:40:30;3.83;;;2.90;;
5507;SDS011;2776;51.046;6.772;2024-01-30T13:42:56;7.97;;;3.40;;
5507;SDS011;2776;51.046;6.772;2024-01-30T13:45:23;5.80;;;3.60;;
5507;SDS011;2776;51.046;6.772;2024-01-30T13:47:51;3.83;;;2.70;;
5507;SDS011;2776;51.046;6.772;2024-01-30T13:50:18;4.53;;;3.13;;
5507;SDS011;2776;51.046;6.772;2024-01-30T13:52:44;4.90;;;3.20;;
5507;SDS011;2776;51.046;6.772;2024-01-30T13:55:11;4.23;;;3.20;;
5507;SDS011;2776;51.046;6.772;2024-01-30T13:57:38;5.50;;;3.60;;
5507;SDS011;2776;51.046;6.772;2024-01-30T14:00:05;6.33;;;3.37;;
5507;SDS011;2776;51.046;6.772;2024-01-30T14:02:33;4.47;;;3.30;;
5507;SDS011;2776;51.046;6.772;2024-01-30T14:05:01;6.77;;;3.50;;
5507;SDS011;2776;51.046;6.772;2024-01-30T14:07:29;6.03;;;3.93;;
5507;SDS011;2776;51.046;6.772;2024-01-30T14:09:56;4.47;;;3.27;;
5507;SDS011;2776;51.046;6.772;2024-01-30T14:12:22;4.37;;;3.50;;
5507;SDS011;2776;51.046;6.772;2024-01-30T14:14:49;5.97;;;3.27;;
5507;SDS011;2776;51.046;6.772;2024-01-30T14:17:16;7.07;;;3.80;;
5507;SDS011;2776;51.046;6.772;2024-01-30T14:19:43;7.13;;;3.33;;
5507;SDS011;2776;51.046;6.772;2024-01-30T14:22:11;3.57;;;3.20;;
5507;SDS011;2776;51.046;6.772;2024-01-30T14:24:38;7.23;;;3.80;;
5507;SDS011;2776;51.046;6.772;2024-01-30T14:27:05;6.83;;;4.17;;
5507;SDS011;2776;51.046;6.772;2024-01-30T14:29:32;7.40;;;3.67;;
5507;SDS011;2776;51.046;6.772;2024-01-30T14:31:59;5.97;;;3.70;;
5507;SDS011;2776;51.046;6.772;2024-01-30T14:34:26;5.97;;;3.00;;
5507;SDS011;2776;51.046;6.772;2024-01-30T14:36:53;4.47;;;3.50;;
5507;SDS011;2776;51.046;6.772;2024-01-30T14:39:21;3.57;;;2.97;;
5507;SDS011;2776;51.046;6.772;2024-01-30T14:41:48;4.10;;;3.70;;
5507;SDS011;2776;51.046;6.772;2024-01-30T14:44:14;5.50;;;4.00;;
5507;SDS011;2776;51.046;6.772;2024-01-30T14:46:41;6.63;;;4.00;;
5507;SDS011;2776;51.046;6.772;2024-01-30T14:49:08;5.70;;;3.37;;
5507;SDS011;2776;51.046;6.772;2024-01-30T14:51:35;7.20;;;3.87;;
5507;SDS011;2776;51.046;6.772;2024-01-30T14:54:03;6.83;;;3.97;;
5507;SDS011;2776;51.046;6.772;2024-01-30T14:56:31;6.23;;;3.43;;
5507;SDS011;2776;51.046;6.772;2024-01-30T14:58:57;8.20;;;3.83;;
5507;SDS011;2776;51.046;6.772;2024-01-30T15:01:24;8.27;;;4.53;;
5507;SDS011;2776;51.046;6.772;2024-01-30T15:03:51;6.33;;;3.93;;
5507;SDS011;2776;51.046;6.772;2024-01-30T15:06:19;7.60;;;4.30;;
5507;SDS011;2776;51.046;6.772;2024-01-30T15:08:47;5.83;;;3.63;;
5507;SDS011;2776;51.046;6.772;2024-01-30T15:11:14;7.70;;;4.60;;
5507;SDS011;2776;51.046;6.772;2024-01-30T15:13:42;10.20;;;3.60;;
5507;SDS011;2776;51.046;6.772;2024-01-30T15:16:09;8.10;;;4.20;;